createdAt,value
2022-08-21T00:03:31.031Z,19.73
2022-08-21T00:08:34.609Z,21.35
2022-08-21T00:13:40.626Z,20.77
2022-08-21T00:18:43.997Z,19.73
2022-08-21T00:23:47.328Z,19.77
2022-08-21T00:28:52.129Z,19.53
2022-08-21T00:33:59.379Z,21.27
2022-08-21T00:39:05.118Z,20.95
2022-08-21T00:44:14.022Z,18.73
2022-08-21T00:49:17.411Z,21.35
2022-08-21T00:54:22.649Z,19.35
2022-08-21T00:59:30.299Z,18.93
2022-08-21T01:04:33.635Z,20.00
2022-08-21T01:09:37.437Z,19.40
2022-08-21T01:14:43.902Z,19.45
2022-08-21T01:19:47.246Z,17.67
2022-08-21T01:24:52.297Z,18.20
2022-08-21T01:30:00.437Z,20.30
2022-08-21T01:35:04.388Z,16.65
2022-08-21T01:40:11.612Z,16.92
2022-08-21T01:45:16.609Z,16.92
2022-08-21T01:50:22.230Z,16.33
2022-08-21T01:55:26.990Z,19.07
2022-08-21T02:00:30.541Z,21.92
2022-08-21T02:05:33.941Z,20.50
2022-08-21T02:10:38.669Z,22.47
2022-08-21T02:15:41.957Z,22.85
2022-08-21T02:20:54.178Z,22.23
2022-08-21T02:26:02.631Z,25.47
2022-08-21T02:31:08.521Z,25.47
2022-08-21T02:36:13.398Z,25.60
2022-08-21T02:41:21.811Z,27.27
2022-08-21T02:46:25.219Z,28.48
2022-08-21T02:51:28.714Z,26.80
2022-08-21T02:56:33.454Z,28.58
2022-08-21T03:01:38.587Z,28.70
2022-08-21T03:06:41.963Z,26.90
2022-08-21T03:11:46.705Z,26.60
2022-08-21T03:16:50.861Z,26.17
2022-08-21T03:21:54.213Z,25.58
2022-08-21T03:26:59.087Z,25.23
2022-08-21T03:32:03.187Z,25.88
2022-08-21T03:37:07.984Z,23.77
2022-08-21T03:42:13.127Z,23.83
2022-08-21T03:47:16.629Z,23.63
2022-08-21T03:52:20.277Z,24.13
2022-08-21T03:57:25.068Z,24.40
2022-08-21T04:02:28.499Z,23.57
2022-08-21T04:07:31.896Z,26.02
2022-08-21T04:12:36.606Z,22.45
2022-08-21T04:17:40.365Z,23.77
2022-08-21T04:22:44.009Z,27.67
2022-08-21T04:27:49.148Z,25.65
2022-08-21T04:32:53.385Z,25.17
2022-08-21T04:37:57.103Z,27.10
2022-08-21T04:43:05.968Z,25.00
2022-08-21T04:48:14.306Z,22.05
2022-08-21T04:53:22.802Z,18.80
2022-08-21T04:58:29.130Z,17.43
2022-08-21T05:03:35.220Z,16.63
2022-08-21T05:08:40.334Z,15.98
2022-08-21T05:13:45.062Z,15.10
2022-08-21T05:18:48.354Z,13.32
2022-08-21T05:23:51.653Z,14.30
2022-08-21T05:28:57.328Z,13.00
2022-08-21T05:34:00.735Z,12.47
2022-08-21T05:39:06.955Z,12.00
2022-08-21T05:44:11.679Z,12.20
2022-08-21T05:49:15.677Z,11.77
2022-08-21T05:54:19.065Z,11.50
2022-08-21T05:59:24.206Z,10.10
2022-08-21T06:04:27.728Z,10.23
2022-08-21T06:09:31.018Z,9.88
2022-08-21T06:14:35.790Z,10.40
2022-08-21T06:19:39.598Z,11.23
2022-08-21T06:24:43.057Z,12.30
2022-08-21T06:29:48.003Z,9.73
2022-08-21T06:34:51.411Z,11.30
2022-08-21T06:39:54.752Z,10.60
2022-08-21T06:45:00.717Z,9.60
2022-08-21T06:50:05.892Z,9.30
2022-08-21T06:55:11.575Z,9.50
2022-08-21T07:00:18.062Z,9.20
2022-08-21T07:05:21.530Z,8.68
2022-08-21T07:10:25.239Z,8.40
2022-08-21T07:15:30.825Z,8.10
2022-08-21T07:20:34.923Z,7.88
2022-08-21T07:25:38.210Z,9.27
2022-08-21T07:30:42.890Z,8.93
2022-08-21T07:40:51.198Z,9.98
2022-08-21T07:45:56.114Z,9.57
2022-08-21T07:51:00.666Z,9.17
2022-08-21T07:56:04.714Z,9.27
2022-08-21T08:01:09.972Z,8.73
2022-08-21T08:06:13.519Z,8.17
2022-08-21T08:11:17.233Z,8.90
2022-08-21T08:16:21.976Z,8.90
2022-08-21T08:21:25.402Z,9.40
2022-08-21T08:26:28.819Z,11.83
2022-08-21T08:31:33.540Z,9.60
2022-08-21T08:36:38.679Z,10.02
2022-08-21T08:41:48.148Z,10.65
2022-08-21T08:46:53.903Z,10.67
2022-08-21T08:52:04.582Z,11.73
2022-08-21T08:57:12.620Z,11.43
2022-08-21T09:02:19.511Z,11.50
2022-08-21T09:07:30.897Z,11.07
2022-08-21T09:12:47.542Z,12.90
2022-08-21T09:18:07.586Z,11.50
2022-08-21T09:23:23.489Z,11.15
2022-08-21T09:28:27.584Z,11.73
2022-08-21T09:33:32.474Z,11.65
2022-08-21T09:38:38.380Z,11.75
2022-08-21T09:43:41.798Z,11.82
2022-08-21T09:48:49.450Z,11.65
2022-08-21T09:53:57.554Z,10.35
2022-08-21T09:59:00.896Z,12.00
2022-08-21T10:04:07.297Z,11.63
2022-08-21T10:09:19.945Z,9.50
2022-08-21T10:14:40.185Z,11.10
2022-08-21T10:19:54.047Z,10.88
2022-08-21T10:25:04.548Z,11.80
2022-08-21T10:30:13.533Z,10.55
2022-08-21T10:35:24.785Z,11.57
2022-08-21T10:40:36.690Z,11.20
2022-08-21T10:45:52.146Z,11.55
2022-08-21T10:51:04.537Z,10.20
2022-08-21T10:56:17.197Z,10.40
2022-08-21T11:01:29.839Z,10.52
2022-08-21T11:06:36.078Z,10.93
2022-08-21T11:11:47.230Z,11.13
2022-08-21T11:17:09.442Z,10.07
2022-08-21T11:22:23.379Z,11.50
2022-08-21T11:27:31.841Z,10.90
2022-08-21T11:33:15.050Z,8.37
2022-08-21T11:38:36.873Z,8.77
2022-08-21T11:43:44.106Z,8.75
2022-08-21T11:48:59.848Z,7.82
2022-08-21T11:54:09.429Z,6.97
2022-08-21T11:59:18.481Z,8.50
2022-08-21T12:04:28.786Z,6.45
2022-08-21T12:09:37.749Z,6.03
2022-08-21T12:14:44.357Z,6.50
2022-08-21T12:19:58.985Z,4.65
2022-08-21T12:25:10.011Z,5.30
2022-08-21T12:30:27.422Z,6.47
2022-08-21T12:35:44.007Z,7.00
2022-08-21T12:40:54.463Z,4.30
2022-08-21T12:45:57.868Z,5.40
2022-08-21T12:51:11.654Z,3.47
2022-08-21T12:56:20.878Z,3.10
2022-08-21T13:01:28.084Z,2.95
2022-08-21T13:06:38.833Z,3.10
2022-08-21T13:11:45.978Z,3.58
2022-08-21T13:16:49.830Z,3.20
2022-08-21T13:21:54.180Z,3.60
2022-08-21T13:26:59.517Z,3.75
2022-08-21T13:32:05.683Z,2.55
2022-08-21T13:37:13.444Z,2.67
2022-08-21T13:42:18.706Z,2.80
2022-08-21T13:47:22.502Z,3.03
2022-08-21T13:52:28.349Z,3.22
2022-08-21T13:57:36.004Z,2.63
2022-08-21T14:02:42.704Z,2.90
2022-08-21T14:07:48.226Z,2.83
2022-08-21T14:12:55.785Z,2.40
2022-08-21T14:18:11.931Z,2.30
2022-08-21T14:23:26.512Z,3.03
2022-08-21T14:28:34.433Z,2.85
2022-08-21T14:33:37.961Z,2.67
2022-08-21T14:38:42.839Z,2.67
2022-08-21T14:44:01.207Z,3.03
2022-08-21T14:49:09.949Z,2.87
2022-08-21T14:54:13.623Z,3.30
2022-08-21T14:59:20.893Z,2.80
2022-08-21T15:04:24.986Z,5.27
2022-08-21T15:09:29.144Z,3.63
2022-08-21T15:14:38.733Z,2.97
2022-08-21T15:19:42.773Z,3.25
2022-08-21T15:24:46.698Z,3.10
2022-08-21T15:29:54.418Z,3.30
2022-08-21T15:34:59.198Z,3.07
2022-08-21T15:40:02.978Z,2.70
2022-08-21T15:45:09.442Z,3.10
2022-08-21T15:50:15.306Z,3.38
2022-08-21T15:55:18.864Z,2.80
2022-08-21T16:00:25.296Z,2.70
2022-08-21T16:05:28.692Z,3.00
2022-08-21T16:10:32.086Z,3.20
2022-08-21T16:15:36.929Z,3.33
2022-08-21T16:20:40.280Z,3.13
2022-08-21T16:25:44.895Z,2.72
2022-08-21T16:30:51.609Z,2.78
2022-08-21T16:35:55.582Z,3.55
2022-08-21T16:40:59.033Z,2.30
2022-08-21T16:46:04.117Z,2.50
2022-08-21T16:51:07.604Z,2.50
2022-08-21T16:56:12.445Z,2.50
2022-08-21T17:01:20.867Z,2.55
2022-08-21T17:06:28.972Z,3.20
2022-08-21T17:11:38.003Z,2.67
2022-08-21T17:16:47.814Z,2.43
2022-08-21T17:21:51.176Z,2.70
2022-08-21T17:26:56.334Z,2.60
2022-08-21T17:32:01.198Z,2.70
2022-08-21T17:37:04.811Z,2.50
2022-08-21T17:42:12.260Z,2.70
2022-08-21T17:47:17.898Z,2.70
2022-08-21T17:52:21.536Z,3.50
2022-08-21T17:57:28.229Z,3.73
2022-08-21T18:02:33.205Z,3.13
2022-08-21T18:07:36.686Z,2.78
2022-08-21T18:12:41.387Z,2.93
2022-08-21T18:17:49.576Z,3.30
2022-08-21T18:22:52.985Z,3.25
2022-08-21T18:27:56.949Z,3.30
2022-08-21T18:33:01.929Z,2.95
2022-08-21T18:38:05.325Z,3.03
2022-08-21T18:43:12.760Z,3.20
2022-08-21T18:48:20.851Z,3.03
2022-08-21T18:53:27.790Z,3.90
2022-08-21T18:58:32.667Z,4.28
2022-08-21T19:03:37.614Z,4.33
2022-08-21T19:08:41.015Z,3.60
2022-08-21T19:13:45.022Z,4.28
2022-08-21T19:18:49.810Z,3.88
2022-08-21T19:23:53.873Z,3.83
2022-08-21T19:29:02.086Z,3.90
2022-08-21T19:34:10.994Z,3.47
2022-08-21T19:44:20.985Z,4.43
2022-08-21T19:49:29.865Z,3.40
2022-08-21T19:59:41.722Z,3.37
2022-08-21T20:10:10.618Z,4.75
2022-08-21T20:15:14.685Z,3.60
2022-08-21T20:20:19.887Z,3.17
2022-08-21T20:25:23.345Z,3.55
2022-08-21T20:30:26.791Z,3.80
2022-08-21T20:40:35.868Z,5.10
2022-08-21T20:45:40.142Z,4.43
2022-08-21T20:50:49.195Z,4.50
2022-08-21T20:55:52.988Z,4.93
2022-08-21T21:01:00.050Z,4.40
2022-08-21T21:06:09.146Z,4.35
2022-08-21T21:11:17.117Z,4.43
2022-08-21T21:16:24.537Z,5.20
2022-08-21T21:21:35.853Z,5.00
2022-08-21T21:26:48.656Z,5.03
2022-08-21T21:31:54.113Z,5.65
2022-08-21T21:37:04.012Z,5.22
2022-08-21T21:42:16.246Z,6.07
2022-08-21T21:47:25.516Z,5.80
2022-08-21T21:52:46.518Z,5.70
2022-08-21T21:58:04.821Z,6.30
2022-08-21T22:03:15.852Z,6.30
2022-08-21T22:08:30.157Z,6.17
2022-08-21T22:13:39.097Z,6.10
2022-08-21T22:18:47.166Z,5.90
2022-08-21T22:24:07.511Z,6.03
2022-08-21T22:29:20.602Z,6.82
2022-08-21T22:34:25.314Z,6.75
2022-08-21T22:39:38.510Z,6.10
2022-08-21T22:44:51.746Z,6.43
2022-08-21T22:50:02.309Z,6.25
2022-08-21T22:55:24.672Z,6.43
2022-08-21T23:00:49.602Z,6.95
2022-08-21T23:05:54.727Z,6.25
2022-08-21T23:11:03.020Z,5.80
2022-08-21T23:16:19.957Z,5.97
2022-08-21T23:21:30.493Z,5.90
2022-08-21T23:26:46.926Z,5.37
2022-08-21T23:32:04.074Z,5.70
2022-08-21T23:37:49.387Z,5.30
2022-08-21T23:43:08.141Z,5.65
2022-08-21T23:48:29.591Z,5.63
2022-08-21T23:53:50.311Z,6.18
2022-08-21T23:59:04.469Z,5.10
